createdAt,value
2022-10-22T00:01:27.386Z,48.97
2022-10-22T00:04:34.379Z,49.75
2022-10-22T00:07:37.563Z,49.00
2022-10-22T00:10:39.696Z,48.39
2022-10-22T00:13:41.722Z,51.84
2022-10-22T00:16:43.725Z,52.20
2022-10-22T00:19:45.610Z,51.78
2022-10-22T00:22:47.547Z,51.86
2022-10-22T00:25:49.388Z,50.56
2022-10-22T00:28:51.280Z,52.44
2022-10-22T00:31:53.145Z,52.60
2022-10-22T00:34:54.971Z,52.71
2022-10-22T00:37:56.809Z,51.74
2022-10-22T00:40:58.706Z,52.26
2022-10-22T00:44:01.470Z,50.57
2022-10-22T00:47:03.418Z,51.37
2022-10-22T00:50:06.673Z,50.56
2022-10-22T00:53:13.309Z,51.15
2022-10-22T00:56:15.190Z,49.93
2022-10-22T00:59:17.122Z,52.59
2022-10-22T01:02:19.157Z,53.69
2022-10-22T01:05:21.431Z,51.46
2022-10-22T01:08:46.474Z,51.83
2022-10-22T01:11:51.344Z,52.49
2022-10-22T01:14:58.973Z,50.60
2022-10-22T01:18:08.230Z,51.92
2022-10-22T01:21:30.789Z,51.75
2022-10-22T01:24:32.806Z,49.38
2022-10-22T01:27:43.747Z,51.06
2022-10-22T01:30:45.781Z,51.67
2022-10-22T01:33:47.617Z,52.42
2022-10-22T01:36:49.509Z,50.99
2022-10-22T01:39:51.315Z,51.77
2022-10-22T01:42:56.766Z,53.11
2022-10-22T01:45:59.274Z,53.85
2022-10-22T01:49:16.637Z,54.27
2022-10-22T01:52:26.529Z,53.58
2022-10-22T01:55:36.393Z,54.16
2022-10-22T01:58:57.182Z,52.64
2022-10-22T02:02:05.091Z,53.15
2022-10-22T02:05:08.393Z,52.37
2022-10-22T02:08:18.310Z,52.56
2022-10-22T02:11:20.391Z,52.57
2022-10-22T02:14:22.341Z,51.48
2022-10-22T02:17:24.269Z,52.54
2022-10-22T02:20:27.508Z,52.28
2022-10-22T02:23:29.415Z,52.65
2022-10-22T02:26:39.655Z,51.92
2022-10-22T02:29:43.988Z,50.67
2022-10-22T02:32:56.832Z,50.33
2022-10-22T02:35:58.697Z,49.17
2022-10-22T02:39:00.678Z,52.28
2022-10-22T02:42:02.711Z,54.34
2022-10-22T02:45:04.960Z,54.73
2022-10-22T02:48:06.942Z,52.82
2022-10-22T02:51:08.775Z,54.78
2022-10-22T02:54:10.649Z,54.53
2022-10-22T02:57:12.760Z,53.97
2022-10-22T03:00:14.790Z,52.80
2022-10-22T03:03:16.601Z,50.90
2022-10-22T03:06:18.440Z,51.66
2022-10-22T03:09:22.761Z,52.22
2022-10-22T03:12:26.624Z,53.01
2022-10-22T03:18:35.254Z,54.62
2022-10-22T03:21:40.292Z,57.32
2022-10-22T03:24:42.831Z,57.40
2022-10-22T03:27:44.727Z,57.31
2022-10-22T03:30:46.627Z,57.90
2022-10-22T03:33:48.467Z,58.19
2022-10-22T03:36:50.359Z,55.32
2022-10-22T03:39:52.350Z,57.94
2022-10-22T03:42:54.182Z,58.90
2022-10-22T03:45:55.998Z,57.12
2022-10-22T03:48:57.801Z,57.63
2022-10-22T03:52:05.249Z,58.90
2022-10-22T03:55:07.689Z,57.11
2022-10-22T03:58:09.491Z,54.65
2022-10-22T04:01:12.082Z,53.44
2022-10-22T04:04:13.974Z,55.33
2022-10-22T04:07:15.933Z,54.43
2022-10-22T04:10:17.846Z,54.18
2022-10-22T04:13:19.635Z,53.09
2022-10-22T04:16:22.606Z,55.81
2022-10-22T04:19:25.746Z,59.02
2022-10-22T04:22:27.607Z,58.17
2022-10-22T04:25:29.854Z,57.89
2022-10-22T04:28:31.708Z,55.33
2022-10-22T04:31:33.616Z,54.96
2022-10-22T04:34:35.625Z,55.18
2022-10-22T04:37:37.797Z,55.80
2022-10-22T04:40:40.035Z,54.02
2022-10-22T04:43:42.158Z,54.86
2022-10-22T04:46:44.155Z,59.02
2022-10-22T04:49:45.978Z,55.75
2022-10-22T04:52:47.831Z,55.27
2022-10-22T04:55:49.693Z,57.78
2022-10-22T04:58:53.381Z,57.04
2022-10-22T05:01:55.190Z,55.61
2022-10-22T05:04:57.059Z,54.44
2022-10-22T05:07:59.013Z,58.57
2022-10-22T05:11:00.922Z,57.55
2022-10-22T05:14:04.502Z,54.88
2022-10-22T05:17:06.552Z,54.38
2022-10-22T05:20:08.733Z,54.79
2022-10-22T05:23:10.578Z,55.43
2022-10-22T05:26:13.133Z,55.70
2022-10-22T05:29:15.024Z,54.14
2022-10-22T05:32:16.974Z,55.52
2022-10-22T05:35:18.822Z,55.82
2022-10-22T05:38:20.708Z,54.80
2022-10-22T05:41:23.206Z,54.97
2022-10-22T05:44:24.997Z,55.58
2022-10-22T05:47:28.730Z,54.82
2022-10-22T05:50:30.748Z,56.70
2022-10-22T05:53:33.191Z,55.25
2022-10-22T05:56:35.291Z,54.52
2022-10-22T05:59:37.126Z,55.28
2022-10-22T06:02:39.210Z,53.21
2022-10-22T06:05:41.324Z,53.16
2022-10-22T06:08:43.328Z,55.73
2022-10-22T06:11:46.156Z,57.79
2022-10-22T06:14:47.995Z,55.27
2022-10-22T06:17:49.843Z,54.22
2022-10-22T06:20:51.867Z,51.88
2022-10-22T06:23:55.403Z,55.35
2022-10-22T06:26:57.329Z,55.21
2022-10-22T06:29:59.246Z,56.51
2022-10-22T06:33:01.086Z,56.10
2022-10-22T06:36:07.759Z,55.50
2022-10-22T06:39:11.362Z,53.07
2022-10-22T06:42:13.181Z,49.73
2022-10-22T06:45:15.026Z,49.10
2022-10-22T06:48:17.035Z,50.90
2022-10-22T06:51:19.393Z,49.10
2022-10-22T06:54:21.698Z,47.20
2022-10-22T06:57:23.692Z,48.76
2022-10-22T07:00:25.585Z,51.49
2022-10-22T07:03:27.646Z,49.04
2022-10-22T07:06:29.679Z,49.37
2022-10-22T07:09:31.518Z,49.25
2022-10-22T07:12:33.861Z,49.43
2022-10-22T07:15:35.730Z,49.07
2022-10-22T07:18:38.369Z,46.40
2022-10-22T07:21:40.437Z,47.66
2022-10-22T07:24:42.250Z,48.16
2022-10-22T07:27:44.183Z,50.47
2022-10-22T07:30:46.048Z,50.51
2022-10-22T07:33:48.022Z,46.29
2022-10-22T07:36:50.019Z,49.02
2022-10-22T07:39:52.117Z,49.42
2022-10-22T07:42:53.961Z,52.55
2022-10-22T07:45:56.029Z,48.49
2022-10-22T07:48:58.265Z,49.45
2022-10-22T07:52:00.198Z,47.88
2022-10-22T07:55:02.132Z,48.70
2022-10-22T07:58:04.549Z,50.62
2022-10-22T08:01:06.550Z,45.96
2022-10-22T08:04:09.819Z,46.42
2022-10-22T08:07:11.718Z,49.80
2022-10-22T08:10:13.625Z,46.27
2022-10-22T08:13:15.506Z,46.49
2022-10-22T08:16:17.313Z,50.28
2022-10-22T08:19:21.321Z,46.23
2022-10-22T08:22:23.183Z,49.09
2022-10-22T08:25:25.263Z,48.74
2022-10-22T08:28:28.864Z,45.65
2022-10-22T08:31:30.890Z,47.78
2022-10-22T08:34:33.104Z,46.65
2022-10-22T08:37:34.993Z,44.44
2022-10-22T08:40:38.892Z,44.66
2022-10-22T08:43:47.099Z,41.92
2022-10-22T08:46:51.197Z,42.38
2022-10-22T08:49:53.093Z,41.92
2022-10-22T08:52:55.611Z,44.34
2022-10-22T08:55:57.418Z,41.87
2022-10-22T08:58:59.256Z,42.01
2022-10-22T09:02:01.330Z,43.54
2022-10-22T09:05:12.892Z,44.81
2022-10-22T09:08:16.172Z,44.76
2022-10-22T09:11:18.193Z,43.22
2022-10-22T09:14:21.458Z,41.12
2022-10-22T09:17:49.741Z,42.61
2022-10-22T09:21:03.880Z,42.10
2022-10-22T09:24:05.901Z,39.97
2022-10-22T09:27:12.154Z,42.40
2022-10-22T09:30:21.361Z,44.83
2022-10-22T09:33:27.723Z,44.08
2022-10-22T09:36:30.227Z,43.37
2022-10-22T09:39:33.017Z,43.48
2022-10-22T09:42:35.238Z,43.19
2022-10-22T09:45:37.092Z,43.67
2022-10-22T09:48:42.508Z,44.71
2022-10-22T09:51:51.346Z,46.31
2022-10-22T09:54:53.242Z,44.43
2022-10-22T09:57:55.798Z,45.29
2022-10-22T10:00:58.553Z,45.38
2022-10-22T10:04:11.057Z,44.77
2022-10-22T10:07:17.723Z,42.61
2022-10-22T10:10:21.556Z,43.65
2022-10-22T10:13:35.861Z,41.11
2022-10-22T10:16:56.170Z,41.32
2022-10-22T10:20:01.491Z,41.43
2022-10-22T10:23:25.478Z,42.74
2022-10-22T10:26:33.514Z,42.81
2022-10-22T10:29:54.114Z,42.72
2022-10-22T10:33:22.413Z,42.01
2022-10-22T10:36:27.709Z,42.15
2022-10-22T10:39:35.864Z,42.98
2022-10-22T10:42:41.008Z,41.05
2022-10-22T10:45:47.071Z,40.53
2022-10-22T10:48:51.310Z,42.42
2022-10-22T10:52:11.633Z,44.40
2022-10-22T10:55:15.252Z,41.95
2022-10-22T10:58:31.191Z,43.42
2022-10-22T11:01:45.413Z,41.74
2022-10-22T11:05:13.510Z,40.94
2022-10-22T11:08:17.618Z,42.66
2022-10-22T11:11:28.338Z,41.55
2022-10-22T11:14:33.237Z,39.80
2022-10-22T11:17:43.201Z,39.11
2022-10-22T11:21:03.939Z,40.02
2022-10-22T11:24:24.707Z,42.71
2022-10-22T11:27:37.514Z,40.45
2022-10-22T11:30:39.393Z,42.05
2022-10-22T11:34:05.121Z,43.24
2022-10-22T11:37:17.478Z,42.91
2022-10-22T11:40:20.860Z,42.29
2022-10-22T11:43:46.203Z,41.58
2022-10-22T11:46:58.288Z,43.52
2022-10-22T11:50:17.419Z,43.22
2022-10-22T11:53:25.472Z,43.85
2022-10-22T11:56:28.350Z,43.25
2022-10-22T11:59:52.453Z,39.88
2022-10-22T12:03:02.371Z,40.56
2022-10-22T12:06:04.585Z,41.78
2022-10-22T12:09:07.236Z,44.56
2022-10-22T12:12:15.604Z,43.59
2022-10-22T12:15:21.325Z,43.66
2022-10-22T12:18:24.226Z,44.40
2022-10-22T12:21:26.347Z,45.35
2022-10-22T12:24:32.206Z,46.61
2022-10-22T12:27:35.146Z,46.50
2022-10-22T12:30:37.019Z,42.16
2022-10-22T12:33:38.888Z,42.12
2022-10-22T12:36:40.751Z,43.56
2022-10-22T12:39:42.743Z,43.59
2022-10-22T12:42:48.631Z,43.50
2022-10-22T12:45:50.590Z,45.27
2022-10-22T12:48:52.672Z,44.80
2022-10-22T12:51:54.846Z,41.74
2022-10-22T12:54:56.690Z,42.65
2022-10-22T12:57:58.762Z,43.77
2022-10-22T13:01:03.624Z,45.72
2022-10-22T13:04:07.375Z,45.49
2022-10-22T13:07:12.296Z,43.17
2022-10-22T13:10:22.075Z,43.48
2022-10-22T13:13:31.041Z,43.37
2022-10-22T13:16:33.381Z,44.87
2022-10-22T13:19:47.711Z,46.57
2022-10-22T13:22:53.435Z,44.36
2022-10-22T13:25:59.572Z,43.48
2022-10-22T13:29:01.888Z,43.41
2022-10-22T13:32:03.790Z,43.44
2022-10-22T13:35:05.845Z,44.29
2022-10-22T13:38:15.265Z,45.09
2022-10-22T13:41:21.961Z,46.04
2022-10-22T13:44:23.805Z,45.84
2022-10-22T13:47:29.167Z,45.27
2022-10-22T13:50:30.957Z,43.94
2022-10-22T13:53:32.962Z,46.16
2022-10-22T13:56:34.932Z,47.40
2022-10-22T13:59:36.832Z,48.15
2022-10-22T14:02:39.313Z,45.57
2022-10-22T14:05:41.370Z,44.18
2022-10-22T14:08:44.085Z,44.20
2022-10-22T14:11:45.995Z,45.00
2022-10-22T14:14:47.910Z,45.34
2022-10-22T14:17:52.449Z,45.64
2022-10-22T14:20:58.649Z,46.81
2022-10-22T14:24:00.642Z,45.10
2022-10-22T14:27:02.515Z,46.11
2022-10-22T14:30:04.855Z,45.70
2022-10-22T14:33:17.593Z,46.92
2022-10-22T14:36:19.520Z,46.45
2022-10-22T14:39:21.707Z,46.09
2022-10-22T14:42:23.528Z,46.94
2022-10-22T14:45:26.241Z,46.99
2022-10-22T14:48:28.187Z,47.06
2022-10-22T14:51:30.200Z,46.22
2022-10-22T14:54:33.199Z,45.12
2022-10-22T14:57:35.111Z,46.85
2022-10-22T15:00:37.264Z,48.17
2022-10-22T15:03:39.131Z,48.88
2022-10-22T15:06:41.154Z,49.56
2022-10-22T15:09:42.999Z,50.47
2022-10-22T15:12:44.925Z,52.49
2022-10-22T15:15:46.821Z,51.09
2022-10-22T15:18:48.736Z,50.38
2022-10-22T15:21:50.825Z,50.78
2022-10-22T15:24:53.685Z,51.77
2022-10-22T15:27:59.640Z,52.32
2022-10-22T15:31:06.987Z,54.02
2022-10-22T15:34:08.827Z,52.49
2022-10-22T15:37:11.619Z,52.59
2022-10-22T15:40:13.725Z,52.19
2022-10-22T15:43:15.519Z,56.67
2022-10-22T15:46:18.048Z,55.90
2022-10-22T15:49:19.859Z,56.58
2022-10-22T15:52:21.882Z,60.70
2022-10-22T15:55:23.838Z,59.66
2022-10-22T15:58:25.935Z,63.99
2022-10-22T16:01:27.866Z,65.70
2022-10-22T16:04:29.864Z,63.94
2022-10-22T16:07:31.696Z,61.54
2022-10-22T16:10:33.584Z,66.79
2022-10-22T16:13:37.285Z,63.25
2022-10-22T16:16:42.730Z,65.48
2022-10-22T16:19:44.902Z,64.36
2022-10-22T16:22:49.532Z,68.14
2022-10-22T16:25:51.436Z,70.51
2022-10-22T16:28:53.219Z,67.64
2022-10-22T16:31:55.289Z,70.37
2022-10-22T16:34:57.208Z,68.99
2022-10-22T16:37:59.097Z,69.59
2022-10-22T16:41:10.621Z,69.62
2022-10-22T16:44:13.375Z,71.77
2022-10-22T16:47:15.447Z,71.59
2022-10-22T16:50:17.505Z,72.40
2022-10-22T16:53:19.370Z,73.18
2022-10-22T16:56:21.371Z,74.13
2022-10-22T16:59:23.239Z,73.39
2022-10-22T17:02:25.201Z,71.79
2022-10-22T17:05:27.139Z,72.64
2022-10-22T17:08:28.923Z,71.41
2022-10-22T17:11:39.055Z,73.20
2022-10-22T17:14:42.227Z,75.89
2022-10-22T17:17:48.398Z,74.72
2022-10-22T17:20:50.389Z,70.71
2022-10-22T17:23:58.592Z,75.42
2022-10-22T17:27:00.766Z,77.77
2022-10-22T17:30:02.899Z,71.74
2022-10-22T17:33:08.107Z,70.80
2022-10-22T17:36:11.920Z,72.77
2022-10-22T17:39:15.730Z,70.23
2022-10-22T17:42:17.776Z,72.00
2022-10-22T17:45:20.053Z,71.12
2022-10-22T17:48:21.942Z,68.65
2022-10-22T17:51:23.998Z,70.76
2022-10-22T17:54:25.845Z,67.33
2022-10-22T17:57:27.644Z,74.32
2022-10-22T18:00:32.607Z,74.60
2022-10-22T18:03:34.922Z,74.68
2022-10-22T18:06:36.982Z,78.01
2022-10-22T18:09:39.125Z,71.94
2022-10-22T18:12:41.209Z,69.83
2022-10-22T18:15:43.234Z,66.47
2022-10-22T18:18:46.714Z,69.55
2022-10-22T18:21:48.892Z,71.54
2022-10-22T18:24:50.762Z,71.85
2022-10-22T18:27:52.783Z,77.24
2022-10-22T18:30:54.661Z,71.82
2022-10-22T18:33:56.916Z,75.43
2022-10-22T18:36:58.762Z,76.36
2022-10-22T18:40:00.590Z,76.10
2022-10-22T18:43:02.917Z,76.50
2022-10-22T18:46:07.986Z,74.30
2022-10-22T18:49:11.705Z,76.99
2022-10-22T18:52:13.544Z,74.13
2022-10-22T18:55:15.507Z,74.59
2022-10-22T18:58:18.140Z,75.34
2022-10-22T19:01:21.272Z,74.10
2022-10-22T19:04:23.178Z,73.89
2022-10-22T19:07:25.134Z,76.30
2022-10-22T19:10:26.991Z,75.81
2022-10-22T19:13:28.887Z,72.99
2022-10-22T19:16:30.813Z,73.74
2022-10-22T19:19:32.919Z,73.43
2022-10-22T19:22:34.918Z,72.16
2022-10-22T19:25:36.938Z,72.62
2022-10-22T19:28:39.045Z,76.15
2022-10-22T19:31:41.695Z,79.07
2022-10-22T19:34:44.368Z,74.28
2022-10-22T19:37:48.351Z,74.93
2022-10-22T19:40:51.368Z,73.59
2022-10-22T19:43:53.634Z,69.78
2022-10-22T19:46:55.483Z,72.23
2022-10-22T19:49:57.462Z,72.97
2022-10-22T19:52:59.726Z,75.05
2022-10-22T19:56:02.097Z,72.66
2022-10-22T19:59:05.852Z,73.80
2022-10-22T20:02:08.657Z,74.62
2022-10-22T20:05:10.641Z,73.35
2022-10-22T20:08:12.747Z,72.16
2022-10-22T20:11:18.755Z,72.84
2022-10-22T20:14:20.752Z,71.85
2022-10-22T20:17:22.667Z,70.91
2022-10-22T20:20:26.554Z,67.51
2022-10-22T20:23:28.750Z,72.44
2022-10-22T20:26:31.754Z,73.62
2022-10-22T20:29:36.372Z,71.04
2022-10-22T20:32:41.015Z,75.63
2022-10-22T20:35:43.249Z,77.36
2022-10-22T20:38:47.929Z,76.63
2022-10-22T20:41:50.207Z,77.90
2022-10-22T20:44:52.108Z,74.33
2022-10-22T20:48:02.001Z,76.48
2022-10-22T20:51:05.054Z,75.67
2022-10-22T20:54:07.655Z,80.53
2022-10-22T20:57:10.455Z,78.24
2022-10-22T21:00:12.774Z,81.09
2022-10-22T21:03:15.040Z,79.61
2022-10-22T21:06:17.040Z,76.11
2022-10-22T21:09:19.108Z,73.43
2022-10-22T21:12:21.110Z,77.11
2022-10-22T21:15:22.957Z,74.31
2022-10-22T21:18:25.004Z,75.26
2022-10-22T21:21:27.032Z,72.64
2022-10-22T21:24:28.895Z,72.05
2022-10-22T21:27:30.803Z,74.65
2022-10-22T21:30:32.642Z,77.48
2022-10-22T21:33:37.904Z,76.73
2022-10-22T21:36:40.598Z,76.42
2022-10-22T21:39:42.553Z,74.84
2022-10-22T21:42:44.738Z,76.18
2022-10-22T21:45:46.858Z,76.70
2022-10-22T21:48:58.451Z,78.81
2022-10-22T21:52:00.672Z,72.10
2022-10-22T21:55:02.513Z,69.70
2022-10-22T21:58:04.550Z,69.00
2022-10-22T22:01:06.442Z,69.79
2022-10-22T22:04:08.357Z,70.65
2022-10-22T22:07:10.229Z,77.63
2022-10-22T22:10:12.035Z,76.77
2022-10-22T22:13:13.849Z,73.67
2022-10-22T22:16:17.225Z,72.09
2022-10-22T22:19:19.086Z,70.93
2022-10-22T22:22:20.948Z,74.51
2022-10-22T22:25:22.871Z,77.27
2022-10-22T22:28:24.699Z,74.42
2022-10-22T22:31:27.996Z,72.42
2022-10-22T22:34:29.919Z,74.14
2022-10-22T22:37:31.768Z,78.38
2022-10-22T22:40:33.945Z,74.65
2022-10-22T22:43:36.505Z,71.80
2022-10-22T22:46:38.595Z,71.44
2022-10-22T22:49:40.776Z,71.36
2022-10-22T22:52:42.758Z,81.33
2022-10-22T22:55:44.860Z,78.09
2022-10-22T22:58:46.727Z,74.85
2022-10-22T23:01:49.263Z,76.25
2022-10-22T23:04:51.140Z,78.29
2022-10-22T23:07:53.035Z,77.68
2022-10-22T23:10:54.896Z,73.44
2022-10-22T23:13:57.717Z,78.01
2022-10-22T23:16:59.540Z,77.80
2022-10-22T23:20:01.458Z,80.61
2022-10-22T23:23:06.127Z,74.53
2022-10-22T23:26:09.270Z,79.65
2022-10-22T23:29:12.345Z,78.05
2022-10-22T23:32:17.133Z,74.15
2022-10-22T23:35:19.089Z,81.95
2022-10-22T23:38:21.018Z,74.52
2022-10-22T23:41:22.931Z,72.93
2022-10-22T23:44:24.951Z,74.71
2022-10-22T23:47:26.785Z,78.33
2022-10-22T23:50:28.846Z,74.77
2022-10-22T23:53:30.730Z,78.96
2022-10-22T23:56:32.900Z,76.10
2022-10-22T23:59:34.998Z,73.15
